Time;durP1;ratioP1;P1;durP2;ratioP2;P2;SDS_P1;SDS_P2;PMS_P1;PMS_P2;Temp;Humidity;BMP_temperature;BMP_pressure;BME280_temperature;BME280_humidity;BME280_pressure;Samples;Min_cycle;Max_cycle;Signal;HPM_P1;HPM_P2
2021/05/01 00:01:20;;;;;;;3.25;1.50;;;;;;;18.37;33.83;101384.47;4193772;28;20042;-46
2021/05/01 00:03:21;;;;;;;3.97;1.55;;;;;;;18.32;34.02;101376.09;4193117;28;20103;-49
2021/05/01 00:05:22;;;;;;;3.55;2.03;;;;;;;18.28;33.88;101372.16;4194777;28;20822;-48
2021/05/01 00:07:22;;;;;;;2.45;1.50;;;;;;;18.29;33.98;101371.03;4193646;28;20082;-45
2021/05/01 00:09:22;;;;;;;4.00;1.10;;;;;;;18.32;33.85;101367.78;4192664;28;20028;-49
2021/05/01 00:11:23;;;;;;;2.83;1.88;;;;;;;18.26;33.91;101366.88;4194136;28;20035;-45
2021/05/01 00:13:23;;;;;;;2.05;1.40;;;;;;;18.29;33.98;101373.81;4193890;28;20032;-47
2021/05/01 00:15:24;;;;;;;2.35;1.40;;;;;;;18.27;33.99;101373.25;4193369;28;20045;-45
2021/05/01 00:17:24;;;;;;;2.80;1.13;;;;;;;18.24;33.88;101369.06;4193848;28;20036;-47
2021/05/01 00:19:25;;;;;;;4.50;1.30;;;;;;;18.26;33.76;101374.34;4193932;28;20032;-47
2021/05/01 00:21:26;;;;;;;3.47;1.50;;;;;;;18.23;33.70;101372.94;4193128;28;20059;-53
2021/05/01 00:23:26;;;;;;;3.03;1.55;;;;;;;18.20;33.88;101367.06;4192610;28;20035;-46
2021/05/01 00:25:26;;;;;;;4.72;1.75;;;;;;;18.17;33.90;101369.28;4192417;28;20032;-47
2021/05/01 00:27:27;;;;;;;3.33;1.40;;;;;;;18.16;33.97;101366.78;4191956;28;20051;-49
2021/05/01 00:29:27;;;;;;;4.13;1.45;;;;;;;18.12;33.78;101358.16;4192373;28;20635;-47
2021/05/01 00:31:29;;;;;;;2.72;1.58;;;;;;;18.16;33.53;101370.38;4192560;28;20088;-49
2021/05/01 00:33:29;;;;;;;3.05;1.40;;;;;;;18.17;33.72;101374.00;4192511;28;20036;-50
2021/05/01 00:35:30;;;;;;;2.00;1.70;;;;;;;18.14;33.93;101372.56;4174985;28;20084;-48
2021/05/01 00:37:30;;;;;;;2.22;1.45;;;;;;;18.13;33.90;101373.66;4189001;28;20417;-47
2021/05/01 00:39:31;;;;;;;3.67;1.27;;;;;;;18.13;33.64;101373.66;4192256;28;20433;-50
2021/05/01 00:41:31;;;;;;;2.10;1.00;;;;;;;18.08;33.76;101364.47;4191888;28;20028;-51
2021/05/01 00:43:32;;;;;;;1.50;1.33;;;;;;;18.09;33.72;101367.00;4189015;28;20032;-49
2021/05/01 00:45:32;;;;;;;3.67;1.23;;;;;;;18.05;33.78;101360.28;4190827;28;20040;-47
2021/05/01 00:47:33;;;;;;;2.50;1.27;;;;;;;18.05;33.65;101370.53;4191515;28;20666;-48
2021/05/01 00:49:33;;;;;;;2.35;1.45;;;;;;;17.95;33.40;101357.41;4190432;28;20025;-51
2021/05/01 00:51:34;;;;;;;2.28;1.42;;;;;;;18.01;33.58;101364.66;4191901;28;20037;-44
2021/05/01 00:53:35;;;;;;;2.97;1.40;;;;;;;17.93;34.00;101354.06;4192504;28;20036;-46
2021/05/01 00:55:36;;;;;;;1.70;1.20;;;;;;;18.02;33.52;101365.53;4192269;28;20039;-44
2021/05/01 00:57:37;;;;;;;2.08;1.20;;;;;;;18.00;33.85;101357.47;4190547;28;20115;-45
2021/05/01 00:59:38;;;;;;;1.70;1.02;;;;;;;17.95;33.78;101355.47;4191210;28;20060;-46
2021/05/01 01:01:47;;;;;;;3.38;1.38;;;;;;;17.90;33.51;101352.63;4190900;28;20032;-49
2021/05/01 01:03:48;;;;;;;1.35;1.23;;;;;;;17.97;33.92;101364.38;4192364;28;20476;-48
2021/05/01 01:05:48;;;;;;;1.98;1.30;;;;;;;17.93;33.67;101359.59;4190780;28;20060;-44
2021/05/01 01:07:49;;;;;;;2.78;1.65;;;;;;;17.95;33.80;101365.72;4191331;28;20035;-48
2021/05/01 01:09:50;;;;;;;1.20;0.80;;;;;;;17.97;33.58;101369.91;4191738;28;20025;-47
2021/05/01 01:11:51;;;;;;;1.92;1.17;;;;;;;17.97;33.68;101363.53;4190099;28;20045;-50
2021/05/01 01:13:53;;;;;;;2.13;1.00;;;;;;;17.94;33.70;101358.50;4191628;28;20085;-44
2021/05/01 01:15:53;;;;;;;2.55;1.13;;;;;;;17.76;33.63;101332.00;4189306;28;20037;-48
2021/05/01 01:17:54;;;;;;;3.22;1.20;;;;;;;17.90;33.85;101358.19;4191262;28;20461;-48
2021/05/01 01:19:54;;;;;;;3.60;1.27;;;;;;;17.90;33.90;101357.34;4190284;28;20052;-46
2021/05/01 01:21:55;;;;;;;2.22;1.35;;;;;;;17.87;33.91;101352.34;4191308;28;20036;-49
2021/05/01 01:23:55;;;;;;;1.25;1.00;;;;;;;17.89;33.62;101359.28;4192575;28;20572;-46
2021/05/01 01:25:56;;;;;;;1.52;1.33;;;;;;;17.85;33.47;101346.22;4193278;28;20037;-45
2021/05/01 01:27:59;;;;;;;2.90;1.15;;;;;;;17.86;33.69;101357.03;4172046;28;20032;-48
2021/05/01 01:29:59;;;;;;;3.17;1.00;;;;;;;17.80;33.80;101345.06;4190402;28;20580;-50
2021/05/01 01:31:59;;;;;;;2.78;1.25;;;;;;;17.86;33.59;101353.41;4190936;28;20028;-45
2021/05/01 01:34:02;;;;;;;2.75;1.25;;;;;;;17.86;33.72;101361.72;4190958;28;20047;-49
2021/05/01 01:36:06;;;;;;;2.40;1.35;;;;;;;17.81;33.57;101354.19;4191470;28;20048;-49
2021/05/01 01:38:07;;;;;;;2.60;1.00;;;;;;;17.81;33.61;101351.44;4188635;28;20623;-45
2021/05/01 01:40:10;;;;;;;3.50;1.38;;;;;;;17.77;33.60;101347.53;4190837;28;20045;-47
2021/05/01 01:42:10;;;;;;;2.53;0.80;;;;;;;17.78;33.78;101355.56;4191182;28;20040;-46
2021/05/01 01:44:11;;;;;;;2.75;1.00;;;;;;;17.78;33.57;101354.72;4191326;28;20382;-46
2021/05/01 01:46:11;;;;;;;1.95;1.40;;;;;;;17.75;33.63;101355.22;4190493;28;20468;-49
2021/05/01 01:48:11;;;;;;;2.05;1.00;;;;;;;17.69;33.97;101345.19;4191874;28;20028;-45
2021/05/01 01:50:15;;;;;;;2.70;1.13;;;;;;;17.68;33.72;101349.91;4189271;28;20063;-51
2021/05/01 01:52:15;;;;;;;1.65;0.88;;;;;;;17.73;33.61;101349.97;4192865;28;20865;-46
2021/05/01 01:54:16;;;;;;;3.45;0.95;;;;;;;17.73;33.46;101351.91;4190092;28;20147;-48
2021/05/01 01:56:16;;;;;;;1.58;1.00;;;;;;;17.72;33.70;101353.84;4191371;28;20033;-48
2021/05/01 01:58:21;;;;;;;1.75;1.08;;;;;;;17.71;33.58;101352.16;4190499;28;20058;-47
2021/05/01 02:00:27;;;;;;;2.78;1.13;;;;;;;17.71;33.46;101354.09;4189427;28;20037;-50
2021/05/01 02:02:27;;;;;;;1.02;0.80;;;;;;;17.69;33.62;101354.34;4190326;28;20040;-48
2021/05/01 02:04:28;;;;;;;3.15;1.30;;;;;;;17.68;33.63;101351.84;4191175;28;20032;-47
2021/05/01 02:06:28;;;;;;;2.13;1.13;;;;;;;17.68;33.51;101351.84;4192300;28;20032;-48
2021/05/01 02:08:29;;;;;;;1.40;1.15;;;;;;;17.65;33.52;101353.19;4189886;28;20036;-48
2021/05/01 02:10:30;;;;;;;1.90;1.20;;;;;;;17.63;33.66;101352.63;4191483;28;20040;-46
2021/05/01 02:12:30;;;;;;;2.20;1.42;;;;;;;17.57;33.63;101337.03;4189766;28;20044;-45
2021/05/01 02:14:31;;;;;;;1.48;1.20;;;;;;;17.56;33.78;101347.25;4190236;28;20040;-45
2021/05/01 02:16:32;;;;;;;4.10;1.40;;;;;;;17.54;33.64;101334.78;4190237;28;20127;-48
2021/05/01 02:18:32;;;;;;;3.13;1.45;;;;;;;17.37;33.60;101326.53;4190621;28;20033;-52
2021/05/01 02:20:37;;;;;;;1.83;1.30;;;;;;;17.53;33.60;101346.94;4190731;28;20032;-50
2021/05/01 02:22:38;;;;;;;1.35;1.00;;;;;;;17.50;33.60;101350.22;4191016;28;20028;-45
2021/05/01 02:24:38;;;;;;;2.80;1.25;;;;;;;17.50;33.53;101340.00;4190513;28;20075;-45
2021/05/01 02:26:39;;;;;;;2.05;1.05;;;;;;;17.41;33.69;101341.50;4191293;28;20484;-48
2021/05/01 02:28:39;;;;;;;3.53;1.30;;;;;;;17.43;33.67;101347.63;4190544;28;20081;-47
2021/05/01 02:30:40;;;;;;;2.10;1.33;;;;;;;17.44;33.34;101341.84;4190619;28;20028;-45
2021/05/01 02:32:40;;;;;;;2.95;1.20;;;;;;;17.42;33.62;101335.72;4189775;28;20533;-50
2021/05/01 02:34:40;;;;;;;3.05;1.23;;;;;;;17.39;33.66;101341.75;4189645;28;20048;-48
2021/05/01 02:36:41;;;;;;;1.80;1.08;;;;;;;17.35;33.59;101342.53;4190849;28;20037;-47
2021/05/01 02:38:42;;;;;;;1.48;1.00;;;;;;;17.39;33.52;101339.00;4189610;28;20032;-47
2021/05/01 02:40:42;;;;;;;2.33;0.93;;;;;;;17.35;33.55;101334.22;4190613;28;20028;-45
2021/05/01 02:42:44;;;;;;;1.77;0.95;;;;;;;17.31;33.59;101341.38;4191425;28;20119;-49
2021/05/01 02:44:44;;;;;;;2.05;0.95;;;;;;;17.24;33.76;101336.03;4190113;28;20028;-46
2021/05/01 02:46:45;;;;;;;1.52;0.70;;;;;;;17.25;33.61;101330.22;4189109;28;20036;-46
2021/05/01 02:48:45;;;;;;;3.33;0.98;;;;;;;17.19;33.67;101322.94;4191012;28;20032;-48
2021/05/01 02:50:46;;;;;;;2.03;1.35;;;;;;;17.16;33.71;101331.75;4190084;28;20383;-48
2021/05/01 02:52:46;;;;;;;2.15;1.20;;;;;;;17.23;33.50;101332.44;4189867;28;20037;-45
2021/05/01 02:54:47;;;;;;;2.97;0.90;;;;;;;17.17;33.61;101330.69;4190529;28;20028;-45
2021/05/01 02:56:47;;;;;;;4.93;1.02;;;;;;;17.18;33.44;101325.97;4189336;28;20437;-45
2021/05/01 02:58:47;;;;;;;2.22;1.40;;;;;;;17.16;33.67;101319.88;4188253;28;20139;-44
2021/05/01 03:00:48;;;;;;;3.10;1.25;;;;;;;17.14;33.58;101324.84;4190197;28;20032;-46
2021/05/01 03:02:48;;;;;;;3.17;1.10;;;;;;;17.14;33.56;101317.38;4188648;28;20037;-45
2021/05/01 03:04:49;;;;;;;2.90;1.17;;;;;;;17.15;33.81;101309.91;4190700;28;20024;-46
2021/05/01 03:06:49;;;;;;;2.15;0.93;;;;;;;17.08;33.69;101301.78;4191087;28;20037;-47
2021/05/01 03:08:50;;;;;;;2.17;1.35;;;;;;;17.19;33.44;101303.59;4191590;28;20547;-45
2021/05/01 03:10:50;;;;;;;3.70;1.20;;;;;;;17.00;33.61;101300.31;4193359;28;20028;-44
2021/05/01 03:12:51;;;;;;;1.67;1.10;;;;;;;17.13;33.55;101304.63;4193012;28;20040;-45
2021/05/01 03:14:51;;;;;;;3.00;1.10;;;;;;;16.98;33.60;101291.44;4193514;28;20832;-48
2021/05/01 03:16:52;;;;;;;2.42;1.25;;;;;;;17.05;33.55;101303.16;4192875;28;20437;-45
2021/05/01 03:18:53;;;;;;;1.80;1.40;;;;;;;16.97;33.67;101292.50;4192393;28;20033;-46
2021/05/01 03:20:53;;;;;;;1.42;1.33;;;;;;;17.01;33.54;101292.88;4174364;28;20041;-44
2021/05/01 03:22:54;;;;;;;3.42;0.95;;;;;;;17.03;33.75;101305.31;4193902;28;20036;-47
2021/05/01 03:24:54;;;;;;;1.48;0.80;;;;;;;16.96;33.81;101304.69;4192958;28;20055;-44
2021/05/01 03:26:55;;;;;;;2.58;0.95;;;;;;;16.91;33.50;101294.41;4192662;28;20020;-46
2021/05/01 03:28:55;;;;;;;1.58;1.13;;;;;;;16.97;33.46;101297.22;4193143;28;20119;-46
2021/05/01 03:30:56;;;;;;;2.22;1.23;;;;;;;16.89;33.77;101293.78;4191362;28;20036;-45
2021/05/01 03:32:56;;;;;;;1.80;1.23;;;;;;;16.83;33.81;101292.03;4193571;28;20036;-44
2021/05/01 03:34:57;;;;;;;1.15;0.93;;;;;;;16.82;33.76;101301.44;4192767;28;20037;-44
2021/05/01 03:36:57;;;;;;;2.28;1.30;;;;;;;16.85;33.72;101294.56;4191360;28;20426;-47
2021/05/01 03:38:58;;;;;;;2.15;1.08;;;;;;;16.81;33.88;101298.94;4193469;28;20068;-46
2021/05/01 03:41:00;;;;;;;2.28;0.98;;;;;;;16.77;33.69;101292.22;4192390;28;20111;-47
2021/05/01 03:43:00;;;;;;;2.97;1.27;;;;;;;16.79;33.84;101284.50;4195039;28;20060;-46
2021/05/01 03:45:01;;;;;;;0.85;0.82;;;;;;;16.76;33.66;101288.63;4192920;28;20572;-47
2021/05/01 03:47:03;;;;;;;2.35;1.25;;;;;;;16.81;33.69;101279.59;4193100;28;20079;-43
2021/05/01 03:49:03;;;;;;;1.23;0.98;;;;;;;16.84;33.60;101284.59;4192589;28;20033;-44
2021/05/01 03:51:04;;;;;;;0.82;0.82;;;;;;;16.68;33.74;101281.63;4191698;28;20040;-46
2021/05/01 03:53:05;;;;;;;1.02;0.90;;;;;;;16.75;33.76;101287.78;4192778;28;20505;-45
2021/05/01 03:55:07;;;;;;;1.20;1.10;;;;;;;16.69;33.87;101286.03;4191905;28;20032;-45
2021/05/01 03:57:08;;;;;;;0.93;0.82;;;;;;;16.70;33.65;101279.44;4192837;28;20063;-47
2021/05/01 03:59:08;;;;;;;0.85;0.82;;;;;;;16.64;33.82;101285.94;4192278;28;20036;-46
2021/05/01 04:01:09;;;;;;;1.23;1.00;;;;;;;16.64;33.72;101288.69;4192902;28;20051;-45
2021/05/01 04:03:09;;;;;;;3.83;1.23;;;;;;;16.55;34.02;101292.97;4192647;28;20040;-44
2021/05/01 04:05:10;;;;;;;1.60;1.50;;;;;;;16.53;33.97;101297.94;4174267;28;20080;-44
2021/05/01 04:07:11;;;;;;;2.08;0.98;;;;;;;16.53;33.94;101287.69;4192315;28;20101;-45
2021/05/01 04:09:11;;;;;;;1.52;1.38;;;;;;;16.61;33.83;101278.16;4190895;28;20036;-48
2021/05/01 04:11:12;;;;;;;1.20;1.10;;;;;;;16.62;33.73;101277.06;4192228;28;20028;-47
2021/05/01 04:13:12;;;;;;;1.90;1.25;;;;;;;16.60;33.76;101279.22;4192297;28;20037;-45
2021/05/01 04:15:13;;;;;;;1.65;1.15;;;;;;;16.60;33.76;101273.69;4192099;28;20032;-44
2021/05/01 04:17:13;;;;;;;1.48;1.13;;;;;;;16.55;34.20;101277.22;4191038;28;20035;-46
2021/05/01 04:19:13;;;;;;;1.83;1.40;;;;;;;16.62;33.89;101277.06;4192404;28;20033;-46
2021/05/01 04:21:15;;;;;;;2.08;0.98;;;;;;;16.53;33.74;101284.13;4191631;28;20127;-46
2021/05/01 04:23:15;;;;;;;1.45;1.35;;;;;;;16.53;33.76;101282.19;4192669;28;20139;-45
2021/05/01 04:25:16;;;;;;;1.13;0.98;;;;;;;16.59;33.80;101277.56;4191108;28;20479;-46
2021/05/01 04:27:18;;;;;;;2.17;1.10;;;;;;;16.58;33.70;101275.88;4192260;28;20037;-47
2021/05/01 04:29:18;;;;;;;1.90;0.80;;;;;;;16.62;33.63;101274.31;4190356;28;20058;-47
2021/05/01 04:31:19;;;;;;;2.15;1.20;;;;;;;16.49;33.92;101271.88;4191688;28;20047;-50
2021/05/01 04:33:20;;;;;;;1.30;1.20;;;;;;;16.43;33.91;101275.66;4191180;28;20153;-47
2021/05/01 04:35:21;;;;;;;0.77;0.77;;;;;;;16.46;33.82;101280.69;4191789;28;20032;-49
2021/05/01 04:37:21;;;;;;;1.50;1.27;;;;;;;16.53;33.75;101278.59;4191604;28;20787;-46
2021/05/01 04:39:22;;;;;;;1.90;1.45;;;;;;;16.49;33.78;101281.00;4192070;28;20039;-48
2021/05/01 04:41:22;;;;;;;1.13;1.02;;;;;;;16.53;33.82;101273.88;4190958;28;20390;-46
2021/05/01 04:43:25;;;;;;;1.10;1.02;;;;;;;16.50;33.82;101279.91;4192550;28;20052;-46
2021/05/01 04:45:26;;;;;;;2.60;1.05;;;;;;;16.47;33.82;101279.59;4191712;28;20403;-50
2021/05/01 04:47:26;;;;;;;1.60;1.05;;;;;;;16.57;34.05;101279.72;4192224;28;20037;-45
2021/05/01 04:49:27;;;;;;;1.77;0.90;;;;;;;16.61;33.52;101286.44;4192042;28;20031;-51
2021/05/01 04:51:27;;;;;;;1.30;1.20;;;;;;;16.65;33.74;101270.22;4189906;28;20119;-46
2021/05/01 04:53:27;;;;;;;2.30;1.13;;;;;;;16.58;33.59;101279.47;4191732;28;20048;-50
2021/05/01 04:55:28;;;;;;;1.70;1.60;;;;;;;16.63;33.41;101284.25;4192017;28;20032;-51
2021/05/01 04:57:28;;;;;;;1.60;1.50;;;;;;;16.44;33.60;101266.28;4191641;28;20029;-49
2021/05/01 04:59:29;;;;;;;1.52;1.42;;;;;;;16.46;33.70;101283.44;4191939;28;20036;-48
2021/05/01 05:01:30;;;;;;;1.20;1.10;;;;;;;16.50;33.75;101282.69;4187076;28;20040;-49
2021/05/01 05:03:30;;;;;;;1.00;0.90;;;;;;;16.52;33.83;101299.00;4191840;28;20052;-50
2021/05/01 05:05:30;;;;;;;1.27;1.10;;;;;;;16.53;33.71;101290.47;4191532;28;20047;-45
2021/05/01 05:07:31;;;;;;;2.08;1.38;;;;;;;16.43;33.74;101282.00;4191740;28;20123;-48
2021/05/01 05:09:32;;;;;;;1.33;1.05;;;;;;;16.47;33.71;101285.13;4191661;28;20033;-49
2021/05/01 05:11:32;;;;;;;1.30;1.20;;;;;;;16.56;33.62;101278.09;4191012;28;20028;-46
2021/05/01 05:13:33;;;;;;;1.50;1.02;;;;;;;16.44;33.79;101289.22;4191336;28;20154;-49
2021/05/01 05:15:33;;;;;;;2.17;1.40;;;;;;;16.51;33.57;101292.66;4190870;28;20028;-47
2021/05/01 05:17:34;;;;;;;1.00;0.90;;;;;;;16.52;33.66;101290.72;4190001;28;20037;-48
2021/05/01 05:19:34;;;;;;;1.02;0.93;;;;;;;16.45;33.67;101287.28;4191087;28;20124;-52
2021/05/01 05:21:35;;;;;;;1.13;0.93;;;;;;;16.43;33.47;101295.00;4190840;28;20041;-49
2021/05/01 05:23:35;;;;;;;1.38;1.08;;;;;;;16.40;33.91;101296.31;4188784;28;20048;-45
2021/05/01 05:25:36;;;;;;;1.60;0.70;;;;;;;16.47;33.57;101291.47;4190847;28;20576;-48
2021/05/01 05:27:36;;;;;;;2.15;1.10;;;;;;;16.46;33.85;101300.00;4191127;28;20051;-47
2021/05/01 05:29:37;;;;;;;1.33;1.23;;;;;;;16.46;33.66;101300.00;4190773;28;20073;-48
2021/05/01 05:31:37;;;;;;;1.52;1.05;;;;;;;16.33;33.52;101270.81;4190494;28;20029;-48
2021/05/01 05:33:38;;;;;;;1.77;1.13;;;;;;;16.51;33.64;101297.31;4191397;28;20040;-50
2021/05/01 05:35:38;;;;;;;1.58;1.05;;;;;;;16.56;33.42;101294.66;4192300;28;20029;-49
2021/05/01 05:37:38;;;;;;;2.25;0.88;;;;;;;16.46;33.76;101300.00;4189256;28;20060;-47
2021/05/01 05:39:40;;;;;;;0.80;0.63;;;;;;;16.48;33.61;101292.31;4191310;28;20036;-50
2021/05/01 05:41:41;;;;;;;2.63;1.02;;;;;;;16.54;33.40;101288.53;4189280;28;20046;-50
2021/05/01 05:43:41;;;;;;;0.68;0.63;;;;;;;16.51;33.62;101297.31;4192626;28;20440;-50
2021/05/01 05:45:44;;;;;;;2.33;1.10;;;;;;;16.50;33.84;101293.72;4190445;28;20581;-48
2021/05/01 05:47:44;;;;;;;2.38;0.98;;;;;;;16.48;33.76;101298.69;4190440;28;20032;-45
2021/05/01 05:49:45;;;;;;;4.93;0.95;;;;;;;16.46;33.82;101303.59;4192218;28;20074;-46
2021/05/01 05:51:46;;;;;;;1.85;0.93;;;;;;;16.48;33.70;101309.75;4192715;28;20433;-48
2021/05/01 05:53:47;;;;;;;1.55;1.35;;;;;;;16.36;33.90;101307.03;4190575;28;20033;-49
2021/05/01 05:55:47;;;;;;;1.48;1.10;;;;;;;16.43;34.22;101311.56;4190836;28;20032;-47
2021/05/01 05:57:50;;;;;;;4.80;0.90;;;;;;;16.49;33.84;101316.91;4190896;28;20036;-47
2021/05/01 05:59:50;;;;;;;1.95;1.30;;;;;;;16.51;33.88;101319.44;4190777;28;20060;-48
2021/05/01 06:01:52;;;;;;;3.03;1.08;;;;;;;16.51;33.96;101320.28;4189660;28;20039;-44
2021/05/01 06:03:55;;;;;;;4.30;0.95;;;;;;;16.48;33.96;101304.22;4189162;28;20063;-47
2021/05/01 06:06:19;;;;;;;1.83;0.93;;;;;;;16.50;33.97;101317.78;4189852;28;20036;-45
2021/05/01 06:08:20;;;;;;;2.28;1.25;;;;;;;16.50;33.75;101306.72;4190041;28;20032;-48
2021/05/01 06:10:22;;;;;;;2.70;1.20;;;;;;;16.50;33.83;101317.78;4190596;28;20025;-47
2021/05/01 06:12:24;;;;;;;4.93;0.90;;;;;;;16.50;33.94;101310.31;4189309;28;20036;-50
2021/05/01 06:14:26;;;;;;;2.03;1.42;;;;;;;16.39;34.49;101320.34;4189881;28;20033;-49
2021/05/01 06:16:27;;;;;;;1.48;1.27;;;;;;;16.57;34.18;101318.41;4190534;28;20024;-47
2021/05/01 06:18:34;;;;;;;4.03;1.42;;;;;;;16.60;33.65;101312.38;4155252;28;20034;-48
2021/05/01 06:20:35;;;;;;;3.25;1.23;;;;;;;16.57;33.89;101312.91;4186511;28;20025;-46
2021/05/01 06:22:36;;;;;;;2.30;1.38;;;;;;;16.67;33.73;101321.41;4187943;28;20525;-46
2021/05/01 06:24:41;;;;;;;2.25;1.52;;;;;;;16.67;33.93;101323.31;4187612;28;20031;-49
2021/05/01 06:26:42;;;;;;;2.50;1.13;;;;;;;16.48;33.82;101298.69;4189094;28;20028;-49
2021/05/01 06:28:44;;;;;;;5.13;1.13;;;;;;;16.70;34.13;101323.66;4187858;28;20386;-48
2021/05/01 06:30:44;;;;;;;3.40;1.27;;;;;;;16.73;33.80;101330.63;4187853;28;20032;-49
2021/05/01 06:32:46;;;;;;;5.97;1.05;;;;;;;16.73;33.91;101330.63;4188360;28;20495;-47
2021/05/01 06:34:50;;;;;;;2.25;0.90;;;;;;;16.74;33.80;101327.59;4187124;28;20039;-47
2021/05/01 06:36:50;;;;;;;3.00;0.80;;;;;;;16.75;33.81;101329.25;4189361;28;20471;-47
2021/05/01 06:38:53;;;;;;;3.00;1.45;;;;;;;16.72;33.81;101338.03;4187888;28;20098;-48
2021/05/01 06:41:03;;;;;;;3.28;1.25;;;;;;;16.72;33.97;101340.81;4187962;28;20039;-50
2021/05/01 06:43:14;;;;;;;4.00;1.33;;;;;;;16.71;33.82;101343.81;4190450;28;20048;-48
2021/05/01 06:45:17;;;;;;;4.20;1.23;;;;;;;16.73;33.70;101353.56;4191149;28;20495;-49
2021/05/01 06:47:26;;;;;;;1.77;1.13;;;;;;;16.62;33.84;101337.88;4192868;28;20107;-46
2021/05/01 06:49:34;;;;;;;4.60;1.30;;;;;;;16.68;33.69;101342.44;4191074;28;20558;-47
2021/05/01 06:51:44;;;;;;;4.78;1.60;;;;;;;16.70;33.95;101343.00;4191485;28;20442;-47
2021/05/01 06:53:45;;;;;;;3.22;1.63;;;;;;;16.72;33.98;101353.81;4191144;28;20041;-47
2021/05/01 06:55:45;;;;;;;1.88;1.48;;;;;;;16.70;33.82;101340.25;4191000;28;20131;-45
2021/05/01 06:57:53;;;;;;;1.50;1.40;;;;;;;16.52;33.96;101318.34;4192282;28;20123;-48
2021/05/01 06:59:56;;;;;;;2.78;1.27;;;;;;;16.73;33.90;101349.97;4190770;28;20339;-45
2021/05/01 07:01:57;;;;;;;2.80;1.58;;;;;;;16.70;33.91;101345.75;4194165;28;20622;-45
2021/05/01 07:03:59;;;;;;;1.25;1.00;;;;;;;16.73;33.82;101349.97;4191977;28;20119;-45
2021/05/01 07:06:01;;;;;;;4.55;1.40;;;;;;;16.73;34.33;101344.44;4191479;28;20036;-49
2021/05/01 07:08:02;;;;;;;3.47;1.48;;;;;;;16.79;35.83;101348.09;4190322;28;20063;-47
2021/05/01 07:10:07;;;;;;;13.73;1.90;;;;;;;16.85;36.20;101344.31;4191624;28;20528;-48
2021/05/01 07:12:10;;;;;;;8.90;2.22;;;;;;;16.88;37.74;101346.56;4191319;28;20036;-45
2021/05/01 07:14:11;;;;;;;15.40;2.83;;;;;;;16.86;39.75;101344.06;4191342;28;20528;-46
2021/05/01 07:16:12;;;;;;;10.95;2.88;;;;;;;16.93;40.47;101330.91;4190747;28;20053;-48
2021/05/01 07:18:14;;;;;;;17.20;3.15;;;;;;;16.98;41.77;101329.31;4190164;28;20099;-50
2021/05/01 07:20:15;;;;;;;15.60;3.53;;;;;;;17.04;42.61;101334.66;4191623;28;20914;-46
2021/05/01 07:22:15;;;;;;;16.02;3.42;;;;;;;17.03;44.41;101324.69;4191135;28;20345;-47
2021/05/01 07:24:16;;;;;;;14.00;3.38;;;;;;;16.99;43.64;101304.19;4191623;28;20043;-46
2021/05/01 07:26:21;;;;;;;22.13;3.72;;;;;;;17.15;44.62;101330.13;4191136;28;20055;-45
2021/05/01 07:28:26;;;;;;;23.50;4.38;;;;;;;17.15;44.00;101329.25;4190574;28;20123;-46
2021/05/01 07:30:28;;;;;;;25.98;4.53;;;;;;;17.00;44.03;101311.38;4191599;28;20016;-48
2021/05/01 07:32:40;;;;;;;22.88;4.60;;;;;;;17.18;44.13;101337.03;4190720;28;20040;-47
2021/05/01 07:34:49;;;;;;;17.52;4.85;;;;;;;17.14;44.24;101336.72;4189795;28;20040;-46
2021/05/01 07:36:52;;;;;;;20.00;3.72;;;;;;;17.19;43.05;101347.03;4189176;28;20560;-50
2021/05/01 07:38:53;;;;;;;13.20;3.90;;;;;;;17.12;42.56;101330.63;4188209;28;20044;-45
2021/05/01 07:40:54;;;;;;;17.50;3.85;;;;;;;17.17;42.08;101347.28;4191681;28;20463;-47
2021/05/01 07:42:55;;;;;;;18.98;3.63;;;;;;;17.16;41.89;101339.25;4190059;28;20502;-45
2021/05/01 07:44:59;;;;;;;14.13;3.20;;;;;;;17.15;41.74;101343.94;4191088;28;20059;-46
2021/05/01 07:47:01;;;;;;;12.85;3.65;;;;;;;17.17;41.21;101332.63;4189844;28;20029;-47
2021/05/01 07:49:02;;;;;;;9.20;3.03;;;;;;;17.18;41.10;101339.81;4190698;28;20479;-46
2021/05/01 07:51:02;;;;;;;13.32;3.60;;;;;;;17.13;40.84;101320.38;4191247;28;20063;-45
2021/05/01 07:53:03;;;;;;;7.60;3.13;;;;;;;17.15;40.28;101327.34;4189974;28;20472;-44
2021/05/01 07:55:04;;;;;;;15.30;4.18;;;;;;;17.13;40.19;101329.50;4189729;28;20321;-46
2021/05/01 07:57:05;;;;;;;9.77;2.63;;;;;;;17.19;39.97;101330.44;4192614;28;20029;-46
2021/05/01 07:59:06;;;;;;;9.40;2.63;;;;;;;17.17;39.68;101338.16;4191240;28;20527;-44
2021/05/01 08:01:06;;;;;;;5.65;2.67;;;;;;;17.17;39.56;101340.91;4190801;28;20037;-46
2021/05/01 08:03:07;;;;;;;8.10;2.90;;;;;;;17.19;39.16;101350.63;4190462;28;20111;-47
2021/05/01 08:05:08;;;;;;;9.02;3.00;;;;;;;17.15;38.73;101346.72;4190285;28;20428;-52
2021/05/01 08:07:09;;;;;;;6.65;2.55;;;;;;;17.13;39.09;101350.81;4191744;28;20029;-45
2021/05/01 08:09:10;;;;;;;7.82;2.30;;;;;;;17.12;38.81;101341.69;4192351;28;20032;-46
2021/05/01 08:11:10;;;;;;;8.48;2.45;;;;;;;17.16;38.55;101351.13;4190102;28;20505;-45
2021/05/01 08:13:11;;;;;;;9.82;2.75;;;;;;;17.14;38.38;101349.72;4191281;28;20032;-47
2021/05/01 08:15:12;;;;;;;6.43;2.42;;;;;;;17.19;38.52;101358.09;4190316;28;20452;-45
2021/05/01 08:17:12;;;;;;;5.63;2.10;;;;;;;17.16;38.08;101353.06;4191816;28;20089;-47
2021/05/01 08:19:14;;;;;;;5.20;2.28;;;;;;;17.06;38.42;101338.00;4190984;28;20032;-49
2021/05/01 08:21:14;;;;;;;3.88;2.28;;;;;;;17.12;37.87;101347.22;4190915;28;20086;-48
2021/05/01 08:23:15;;;;;;;6.53;2.75;;;;;;;17.08;37.77;101349.63;4191768;28;20036;-48
2021/05/01 08:25:15;;;;;;;7.00;2.55;;;;;;;17.10;37.44;101347.47;4189881;28;20029;-49
2021/05/01 08:27:16;;;;;;;7.32;2.65;;;;;;;17.16;37.53;101350.31;4191044;28;20028;-44
2021/05/01 08:29:17;;;;;;;3.85;2.63;;;;;;;17.01;37.32;101324.13;4191103;28;20033;-45
2021/05/01 08:31:17;;;;;;;4.60;2.00;;;;;;;17.17;37.66;101338.16;4190501;28;20497;-51
2021/05/01 08:33:18;;;;;;;3.58;2.03;;;;;;;17.15;37.50;101341.19;4186978;28;20025;-49
2021/05/01 08:35:18;;;;;;;8.48;2.42;;;;;;;17.14;37.27;101339.50;4190275;28;20082;-48
2021/05/01 08:37:19;;;;;;;4.03;2.22;;;;;;;17.08;37.19;101341.34;4191164;28;20038;-53
2021/05/01 08:39:19;;;;;;;3.72;2.40;;;;;;;17.11;37.15;101345.53;4191686;28;20044;-47
2021/05/01 08:41:22;;;;;;;4.90;2.28;;;;;;;17.18;36.99;101348.97;4189281;28;20032;-46
2021/05/01 08:43:23;;;;;;;3.50;2.30;;;;;;;17.17;37.18;101344.50;4190517;28;20494;-48
2021/05/01 08:45:27;;;;;;;4.22;2.42;;;;;;;17.16;36.87;101342.00;4191717;28;20028;-49
2021/05/01 08:47:30;;;;;;;4.85;2.00;;;;;;;17.18;36.88;101339.81;4189656;28;20562;-51
2021/05/01 08:49:31;;;;;;;5.22;2.22;;;;;;;17.20;36.72;101337.66;4183721;28;20039;-47
2021/05/01 08:51:31;;;;;;;3.53;2.35;;;;;;;17.16;36.55;101350.31;4185912;28;20028;-51
2021/05/01 08:53:33;;;;;;;3.55;2.15;;;;;;;17.20;36.53;101355.06;4189059;28;20585;-45
2021/05/01 08:55:37;;;;;;;3.65;2.28;;;;;;;17.19;36.51;101347.84;4191641;28;20039;-47
2021/05/01 08:57:38;;;;;;;4.05;2.03;;;;;;;17.22;36.51;101352.03;4191331;28;20039;-51
2021/05/01 08:59:39;;;;;;;3.97;2.05;;;;;;;17.21;36.59;101351.22;4186808;28;20033;-47
2021/05/01 09:01:39;;;;;;;2.90;2.00;;;;;;;17.19;36.35;101352.56;4187266;28;20031;-45
2021/05/01 09:03:41;;;;;;;2.85;1.90;;;;;;;17.22;36.43;101360.34;4190733;28;20036;-47
2021/05/01 09:05:43;;;;;;;2.35;1.73;;;;;;;17.21;36.58;101356.75;4191734;28;20478;-46
2021/05/01 09:07:46;;;;;;;4.82;2.20;;;;;;;17.23;36.40;101362.03;4191233;28;20130;-48
2021/05/01 09:10:00;;;;;;;3.33;2.10;;;;;;;17.22;36.19;101358.41;4192321;28;20024;-49
2021/05/01 09:12:00;;;;;;;5.07;2.30;;;;;;;17.16;36.17;101358.59;4190663;28;20063;-46
2021/05/01 09:14:20;;;;;;;2.13;1.90;;;;;;;17.26;36.09;101358.75;4188909;28;20037;-45
2021/05/01 09:16:20;;;;;;;2.20;1.83;;;;;;;17.24;36.21;101347.09;4191231;28;20566;-45
2021/05/01 09:18:21;;;;;;;2.13;1.92;;;;;;;17.26;35.68;101354.06;4190321;28;20029;-46
2021/05/01 09:20:23;;;;;;;2.30;2.10;;;;;;;17.26;36.04;101354.06;4189681;28;20024;-49
2021/05/01 09:22:23;;;;;;;3.55;1.73;;;;;;;17.21;35.54;101348.44;4190642;28;20119;-46
2021/05/01 09:24:23;;;;;;;2.47;1.98;;;;;;;17.29;35.50;101361.00;4188637;28;20118;-48